createdAt,value
2024-03-13T06:03:01.081Z,7.60
2024-03-13T06:05:47.992Z,7.30
2024-03-13T06:08:35.846Z,7.30
2024-03-13T06:11:22.781Z,7.30
2024-03-13T06:14:09.672Z,7.20
2024-03-13T06:16:56.783Z,7.10
2024-03-13T06:19:44.812Z,7.10
2024-03-13T06:22:31.855Z,7.10
2024-03-13T06:25:20.305Z,7.10
2024-03-13T06:28:26.503Z,7.10
2024-03-13T06:31:13.468Z,7.10
2024-03-13T06:34:00.840Z,7.20
2024-03-13T06:36:48.014Z,7.20
2024-03-13T06:39:35.736Z,7.30
2024-03-13T06:42:22.554Z,7.30
2024-03-13T06:45:14.093Z,7.30
2024-03-13T06:48:03.445Z,7.40
2024-03-13T06:50:50.405Z,7.50
2024-03-13T06:53:37.295Z,7.60
2024-03-13T06:56:24.300Z,7.70
2024-03-13T06:59:13.748Z,7.80
2024-03-13T07:02:02.510Z,7.80
2024-03-13T07:04:50.468Z,7.80
2024-03-13T07:07:39.516Z,7.90
2024-03-13T07:10:26.572Z,7.90
2024-03-13T07:13:13.835Z,8.00
2024-03-13T07:16:03.814Z,8.00
2024-03-13T07:18:50.981Z,8.10
2024-03-13T07:21:39.624Z,8.20
2024-03-13T07:24:28.103Z,8.20
2024-03-13T07:27:15.213Z,8.30
2024-03-13T07:30:02.208Z,8.30
2024-03-13T07:32:49.837Z,8.40
2024-03-13T07:35:36.760Z,8.40
2024-03-13T07:38:23.633Z,8.50
2024-03-13T07:41:13.728Z,8.70
2024-03-13T07:44:00.634Z,9.40
2024-03-13T07:46:47.539Z,8.90
2024-03-13T07:49:34.567Z,9.00
2024-03-13T07:52:21.625Z,9.10
2024-03-13T07:55:11.014Z,9.10
2024-03-13T07:57:58.225Z,9.10
2024-03-13T08:00:45.184Z,9.00
2024-03-13T08:03:33.184Z,9.00
2024-03-13T09:08:00.154Z,10.50
2024-03-13T09:10:47.216Z,10.60
2024-03-13T09:13:34.138Z,10.70
2024-03-13T09:16:21.101Z,10.70
2024-03-13T09:19:07.973Z,10.90
2024-03-13T09:21:54.917Z,11.00
2024-03-13T09:24:44.624Z,11.20
2024-03-13T09:27:31.529Z,11.30
2024-03-13T09:30:19.508Z,11.40
2024-03-13T09:33:09.599Z,11.40
2024-03-13T09:35:57.939Z,11.40
2024-03-13T09:38:45.688Z,11.40
2024-03-13T09:41:32.668Z,11.50
2024-03-13T09:44:19.962Z,11.60
2024-03-13T09:47:07.136Z,11.70
2024-03-13T09:49:57.163Z,11.60
2024-03-13T09:52:44.530Z,11.60
2024-03-13T09:55:31.483Z,11.50
2024-03-13T09:58:18.462Z,11.50
2024-03-13T10:01:10.551Z,11.50
2024-03-13T10:04:03.690Z,11.60
2024-03-13T10:06:54.891Z,11.60
2024-03-13T10:09:42.231Z,11.70
2024-03-13T10:12:29.282Z,11.80
2024-03-13T10:15:17.514Z,12.00
2024-03-13T10:18:22.115Z,12.20
2024-03-13T10:21:15.936Z,12.50
2024-03-13T10:24:07.721Z,12.70
2024-03-13T10:26:55.645Z,13.00
2024-03-13T10:29:44.568Z,13.50
2024-03-13T10:32:31.787Z,13.90
2024-03-13T10:35:19.664Z,14.10
2024-03-13T10:38:12.046Z,14.40
2024-03-13T10:41:00.612Z,14.80
2024-03-13T10:43:49.005Z,15.30
2024-03-13T10:46:37.368Z,15.70
2024-03-13T10:49:24.301Z,15.50
2024-03-13T10:52:13.775Z,15.10
2024-03-13T10:55:00.809Z,14.60
2024-03-13T10:57:52.364Z,14.40
2024-03-13T11:00:42.200Z,14.10
2024-03-13T11:03:29.253Z,13.90
2024-03-13T11:06:17.553Z,13.70
2024-03-13T11:09:22.671Z,13.50
2024-03-13T11:12:23.013Z,13.30
2024-03-13T11:15:14.931Z,13.10
2024-03-13T11:18:04.031Z,12.90
2024-03-13T11:21:03.629Z,12.80
2024-03-13T11:23:59.979Z,12.80
2024-03-13T11:26:50.412Z,12.70
2024-03-13T11:29:46.628Z,12.80
2024-03-13T11:32:34.049Z,12.90
2024-03-13T11:35:21.783Z,13.00
2024-03-13T11:38:09.742Z,13.10
2024-03-13T11:40:57.775Z,13.20
2024-03-13T11:43:46.047Z,13.30
2024-03-13T11:46:49.425Z,13.30
2024-03-13T11:49:36.741Z,13.30
2024-03-13T11:52:24.145Z,13.30
2024-03-13T11:55:37.516Z,13.20
2024-03-13T11:58:25.811Z,13.10
2024-03-13T12:01:17.546Z,13.10
2024-03-13T12:04:06.992Z,13.00
2024-03-13T12:06:53.998Z,13.10
2024-03-13T12:09:40.976Z,13.10
2024-03-13T12:12:28.114Z,13.20
2024-03-13T12:15:21.430Z,13.20
2024-03-13T12:18:12.609Z,13.10
2024-03-13T12:21:00.664Z,13.00
2024-03-13T12:23:48.417Z,12.90
2024-03-13T12:26:35.425Z,12.70
2024-03-13T12:29:23.147Z,13.00
2024-03-13T12:32:10.165Z,13.20
2024-03-13T12:34:59.094Z,13.20
2024-03-13T12:37:54.169Z,13.00
2024-03-13T12:40:43.562Z,12.90
2024-03-13T12:43:32.101Z,12.90
2024-03-13T12:46:20.072Z,13.10
2024-03-13T12:49:15.489Z,13.40
2024-03-13T12:52:06.100Z,13.50
2024-03-13T12:54:53.759Z,13.40
2024-03-13T12:57:41.791Z,13.20
2024-03-13T13:00:28.650Z,12.90
2024-03-13T13:03:17.303Z,12.70
2024-03-13T13:06:11.793Z,12.60
2024-03-13T13:08:58.729Z,12.40
2024-03-13T13:11:46.377Z,12.30
2024-03-13T13:14:33.886Z,12.20
2024-03-13T13:17:21.981Z,12.20
2024-03-13T13:20:14.175Z,12.30
2024-03-13T13:23:01.358Z,12.50
2024-03-13T13:25:48.269Z,13.00
2024-03-13T13:28:35.205Z,13.60
2024-03-13T13:31:22.080Z,14.40
2024-03-13T13:34:09.312Z,15.30
2024-03-13T13:36:57.454Z,16.00
2024-03-13T13:39:46.778Z,16.50
2024-03-13T13:42:33.693Z,16.90
2024-03-13T13:45:24.111Z,17.80
2024-03-13T13:48:11.591Z,17.90
2024-03-13T13:51:00.454Z,17.30
2024-03-13T13:53:47.583Z,16.40
2024-03-13T13:56:34.522Z,15.80
2024-03-13T13:59:22.842Z,15.30
2024-03-13T14:02:12.605Z,14.80
2024-03-13T14:04:59.568Z,14.40
2024-03-13T14:07:46.763Z,14.00
2024-03-13T14:10:33.858Z,13.60
2024-03-13T14:13:21.013Z,13.30
2024-03-13T14:16:08.343Z,13.20
2024-03-13T14:18:55.903Z,13.10
2024-03-13T14:21:43.210Z,13.20
2024-03-13T14:24:30.148Z,13.10
2024-03-13T14:27:17.178Z,13.10
2024-03-13T14:30:04.717Z,13.40
2024-03-13T14:32:52.260Z,13.60
2024-03-13T14:35:40.997Z,13.70
2024-03-13T14:38:28.992Z,14.00
2024-03-13T14:41:15.887Z,14.50
2024-03-13T14:44:02.879Z,14.70
2024-03-13T14:46:49.882Z,14.80
2024-03-13T14:49:37.389Z,14.80
2024-03-13T14:52:25.184Z,14.80
2024-03-13T14:55:12.402Z,14.70
2024-03-13T14:57:59.290Z,14.30
2024-03-13T15:00:46.403Z,14.00
2024-03-13T15:03:39.137Z,13.70
2024-03-13T15:06:26.148Z,13.40
2024-03-13T15:09:14.516Z,13.20
2024-03-13T15:12:01.559Z,13.00
2024-03-13T15:14:48.724Z,12.90
2024-03-13T15:17:38.156Z,12.90
2024-03-13T15:20:25.200Z,12.90
2024-03-13T15:23:12.719Z,12.90
2024-03-13T15:25:59.589Z,12.80
2024-03-13T15:28:46.506Z,12.90
2024-03-13T15:31:33.509Z,12.90
2024-03-13T15:34:20.517Z,12.90
2024-03-13T15:37:07.362Z,12.80
2024-03-13T15:39:54.337Z,12.90
2024-03-13T15:42:41.892Z,12.90
2024-03-13T15:45:28.855Z,12.90
2024-03-13T15:48:15.912Z,12.80
2024-03-13T15:51:04.183Z,12.70
2024-03-13T15:53:51.210Z,12.60
2024-03-13T15:56:38.210Z,12.60
2024-03-13T15:59:25.177Z,12.50
2024-03-13T16:05:01.941Z,12.20
2024-03-13T16:08:02.175Z,12.10
2024-03-13T16:10:51.791Z,12.00
2024-03-13T16:13:38.978Z,11.90
2024-03-13T16:19:14.547Z,11.90
2024-03-13T16:22:01.492Z,11.80
2024-03-13T16:24:48.415Z,11.70
2024-03-13T16:27:35.286Z,11.70
2024-03-13T16:30:22.620Z,11.70
2024-03-13T16:38:46.327Z,11.60
2024-03-13T16:41:33.214Z,11.50
2024-03-13T16:44:20.192Z,11.50
2024-03-13T16:47:17.311Z,11.40
2024-03-13T16:50:05.325Z,11.40
2024-03-13T16:52:52.275Z,11.40
2024-03-13T16:55:39.256Z,11.30
2024-03-13T16:58:26.376Z,11.30
2024-03-13T17:01:13.549Z,11.20
2024-03-13T17:04:00.578Z,12.30
2024-03-13T17:06:47.891Z,11.10
2024-03-13T17:09:34.843Z,11.20
2024-03-13T17:12:21.950Z,11.10
2024-03-13T17:17:57.650Z,11.10
2024-03-13T17:20:46.088Z,11.20
2024-03-13T17:26:22.055Z,10.90
2024-03-13T17:29:10.362Z,10.90
2024-03-13T17:31:58.497Z,10.90
2024-03-13T17:34:45.430Z,10.80
2024-03-13T17:37:35.602Z,10.80
2024-03-13T17:40:22.552Z,10.60
2024-03-13T17:43:10.756Z,10.60
2024-03-13T17:45:57.665Z,10.60
2024-03-13T17:48:44.817Z,10.50
2024-03-13T17:51:31.914Z,10.50
2024-03-13T17:54:19.080Z,10.50
2024-03-13T17:57:06.090Z,10.50
2024-03-13T17:59:53.459Z,10.50
2024-03-13T18:02:40.522Z,10.50
2024-03-13T18:05:27.682Z,10.40
2024-03-13T18:08:16.216Z,10.40
2024-03-13T18:11:03.140Z,10.30
2024-03-13T18:13:50.056Z,10.30
2024-03-13T18:16:37.226Z,10.40
2024-03-13T18:19:24.170Z,10.40
2024-03-13T18:22:11.191Z,10.30
2024-03-13T18:24:58.242Z,10.40
2024-03-13T18:27:49.639Z,10.40
2024-03-13T18:30:36.576Z,10.30
2024-03-13T18:33:23.635Z,10.30
2024-03-13T18:36:13.956Z,10.30
2024-03-13T18:39:00.987Z,10.30
2024-03-13T18:41:47.929Z,10.20
2024-03-13T18:44:34.864Z,10.20
2024-03-13T18:47:21.885Z,10.20
2024-03-13T18:50:09.357Z,10.20
2024-03-13T18:52:56.770Z,10.20
2024-03-13T18:55:43.911Z,10.20
2024-03-13T18:58:31.589Z,10.20
2024-03-13T19:01:20.685Z,10.10
2024-03-13T19:04:08.253Z,10.20
2024-03-13T19:06:55.340Z,10.20
2024-03-13T19:09:42.276Z,10.10
2024-03-13T19:12:29.335Z,10.10
2024-03-13T19:15:16.491Z,10.00
2024-03-13T19:20:52.398Z,9.90
2024-03-13T19:26:30.905Z,9.70
2024-03-13T19:29:17.936Z,9.60
2024-03-13T19:32:05.048Z,9.60
2024-03-13T19:34:51.956Z,9.50
2024-03-13T19:37:38.932Z,9.40
2024-03-13T19:40:25.797Z,9.40
2024-03-13T19:43:12.832Z,9.40
2024-03-13T19:46:02.926Z,9.40
2024-03-13T19:51:37.428Z,9.30
2024-03-13T19:54:24.424Z,9.30
2024-03-13T19:57:11.618Z,9.20
2024-03-13T19:59:58.637Z,9.10
2024-03-13T20:02:45.601Z,9.00
2024-03-13T20:05:33.787Z,8.90
2024-03-13T20:08:23.482Z,8.90
2024-03-13T20:11:13.335Z,8.90
2024-03-13T20:14:00.814Z,8.90
2024-03-13T20:16:48.032Z,8.90
2024-03-13T20:19:35.346Z,8.90
2024-03-13T20:22:22.274Z,8.90
2024-03-13T20:25:10.321Z,8.80
2024-03-13T20:27:57.860Z,8.80
2024-03-13T20:30:44.979Z,8.70
2024-03-13T20:33:35.211Z,8.60
2024-03-13T20:39:10.130Z,8.40
2024-03-13T20:41:57.311Z,8.40
2024-03-13T20:44:44.622Z,8.40
2024-03-13T20:47:32.388Z,8.30
2024-03-13T20:50:19.210Z,8.30
2024-03-13T20:53:07.082Z,8.30
2024-03-13T20:55:54.590Z,8.40
2024-03-13T20:58:42.496Z,8.40
2024-03-13T21:01:30.709Z,8.30
2024-03-13T21:04:17.638Z,8.20
2024-03-13T21:07:05.351Z,8.10
2024-03-13T21:09:54.541Z,8.10
2024-03-13T21:12:44.061Z,8.10
2024-03-13T21:18:18.445Z,7.90
2024-03-13T21:21:06.863Z,7.80
2024-03-13T21:23:55.337Z,7.70
2024-03-13T21:26:42.822Z,7.70
2024-03-13T21:29:32.483Z,7.70
2024-03-13T21:32:19.557Z,7.70
2024-03-13T21:35:06.761Z,7.70
2024-03-13T21:37:59.771Z,7.70
2024-03-13T21:40:47.133Z,7.60
2024-03-13T21:43:34.275Z,7.60
2024-03-13T21:46:21.400Z,7.60
2024-03-13T21:49:09.530Z,7.60
2024-03-13T21:51:56.443Z,7.60
2024-03-13T21:54:43.310Z,7.50
2024-03-13T21:57:30.365Z,7.50
2024-03-13T22:00:17.545Z,7.50
2024-03-13T22:03:05.305Z,7.60
2024-03-13T22:05:52.289Z,7.60
2024-03-13T22:08:39.221Z,7.60
2024-03-13T22:11:26.709Z,7.60
2024-03-13T22:14:13.644Z,7.70
2024-03-13T22:17:00.564Z,7.70
2024-03-13T22:19:49.403Z,7.70
2024-03-13T22:22:36.521Z,7.80
2024-03-13T22:25:23.474Z,7.80
2024-03-13T22:28:10.667Z,7.80
2024-03-13T22:30:59.644Z,7.90
2024-03-13T22:33:46.612Z,7.90
2024-03-13T22:36:33.634Z,8.00
2024-03-13T22:39:20.695Z,8.00
2024-03-13T22:42:07.939Z,8.00
2024-03-13T22:44:55.263Z,8.00
2024-03-13T22:47:42.353Z,8.00
2024-03-13T22:50:29.373Z,8.00
2024-03-13T22:53:16.274Z,8.00
2024-03-13T22:56:03.261Z,8.00
2024-03-13T22:58:50.170Z,8.00
2024-03-13T23:01:37.198Z,8.00
2024-03-13T23:04:24.133Z,8.00
2024-03-13T23:07:13.871Z,8.10
2024-03-13T23:15:37.040Z,8.30
2024-03-13T23:18:29.410Z,8.30
2024-03-13T23:21:20.178Z,8.30
2024-03-13T23:24:07.362Z,8.20
2024-03-13T23:26:54.564Z,8.20
2024-03-13T23:29:41.664Z,8.40
2024-03-13T23:32:31.323Z,8.30
2024-03-13T23:38:06.055Z,8.40
2024-03-13T23:40:53.084Z,8.40
2024-03-13T23:43:40.412Z,8.40
2024-03-13T23:46:27.347Z,8.30
2024-03-13T23:49:14.380Z,8.30
2024-03-13T23:52:03.594Z,8.30
2024-03-13T23:54:50.590Z,8.30
2024-03-13T23:57:37.863Z,8.30
